• Join FlightAware (Why Join?)
  • Login
  • US Flag 
Gobble Gobble! 
04:38AM EST


 

Airport Tracker/Info


-or-


 

Live Flight TrackerFlight Track Log ✈ EJA583 ✈ 22-Jul-2013 ✈ KSAV - KPBI

Flight Track Log - Related Links

Times and Time Zones

All times are in EDT time to prevent confusion due to time zone crossing. See the EJA583 flight status page for this flight to view local times or setup timezone preferences in your user account.

Time Position Orientation Groundspeed Altitude Reporting Facility
EDT Latitude Longitude Course Direction KTS MPH feet Rate Location/Type
05:15PM 32.0053 -81.2217 215° Southwest 231 266 6,300  Level Jacksonville Center
05:16PM 31.9411 -81.2817 218° Southwest 260 299 9,900 2,760 Climbing Jacksonville Center
05:17PM 31.8833 -81.3194 209° Southwest 265 305 11,900 2,280 Climbing Jacksonville Center
05:18PM 31.7892 -81.3014 171° South 284 327 14,500 2,460 Climbing Jacksonville Center
05:19PM 31.7097 -81.2956 176° South 314 361 16,900 2,340 Climbing Jacksonville Center
05:20PM 31.6280 -81.6179 215° Southwest  Level FlightAware Approximate
05:20PM 31.6094 -81.2875 176° South 328 377 19,200  Level Jacksonville Center
05:21PM 31.5447 -81.6857 215° Southwest  Level FlightAware Approximate
05:21PM 31.5194 -81.2792 175° South 334 384 21,200  Level Jacksonville Center
05:22PM 31.4339 -81.2708 175° South 334 384 22,400 900 Climbing Jacksonville Center
05:23PM 31.3336 -81.2653 177° South 350 403 23,000 720 Climbing Jacksonville Center
05:24PM 31.2311 -81.2600 177° South 363 418 23,900 1,080 Climbing Jacksonville Center
05:25PM 31.1308 -81.2544 177° South 368 423 25,200 1,140 Climbing Jacksonville Center
05:26PM 31.0283 -81.2464 176° South 368 423 26,200 900 Climbing Jacksonville Center
05:27PM 30.9239 -81.2361 175° South 368 423 27,100 720 Climbing Jacksonville Center
05:28PM 30.8172 -81.2236 174° South 368 423 27,700 540 Climbing Jacksonville Center
05:29PM 30.7144 -81.1964 167° South 374 430 28,300 540 Climbing Jacksonville Center
05:30PM 30.6117 -81.1594 163° South 379 436 28,900 600 Climbing Jacksonville Center
05:31PM 30.5106 -81.0964 152° Southeast 390 449 29,500 660 Climbing Jacksonville Center
05:32PM 30.4158 -81.0403 153° Southeast 390 449 30,300 780 Climbing Jacksonville Center
05:33PM 30.3169 -80.9844 154° Southeast 395 455 31,100 840 Climbing Jacksonville Center
05:34PM 30.2100 -80.9433 162° South 400 460 32,000 1,020 Climbing Jacksonville Center
05:35PM 30.0989 -80.9239 171° South 400 460 33,200 1,200 Climbing Jacksonville Center
05:36PM 29.9900 -80.9022 170° South 400 460 34,400 1,200 Climbing Jacksonville Center
05:37PM 29.8811 -80.8853 172° South 394 453 35,700 780 Climbing Jacksonville Center
05:38PM 29.7703 -80.8658 171° South 394 453 36,000 60 Climbing Jacksonville Center
05:41PM 29.5247 -80.8214 171° South 395 455 36,000  Level Miami Center
05:42PM 29.4292 -80.8061 172° South 395 455 36,000  Level Miami Center
05:43PM 29.3211 -80.7881 172° South 390 449 36,000  Level Miami Center
05:44PM 29.2133 -80.7697 172° South 390 449 36,000  Level Miami Center
05:45PM 29.1053 -80.7517 172° South 390 449 36,000  Level Miami Center
05:46PM 29.0017 -80.7314 170° South 390 449 36,000  Level Miami Center
05:47PM 28.8833 -80.7106 171° South 385 443 36,000 -120 Level Miami Center
05:48PM 28.7897 -80.6933 171° South 385 443 35,800 -1,020 Descending Miami Center
05:49PM 28.6842 -80.6658 167° South 391 450 34,000 -1,920 Descending Miami Center
05:50PM 28.5858 -80.5939 147° Southeast 382 440 32,000 -1,800 Descending Miami Center
05:51PM 28.4978 -80.5319 148° Southeast 377 434 30,400 -1,740 Descending Miami Center
05:52PM 28.4036 -80.4653 148° Southeast 384 442 28,600 -1,980 Descending Miami Center
05:53PM 28.3172 -80.4106 151° Southeast 391 450 26,500 -2,340 Descending Miami Center
05:54PM 28.2094 -80.3789 165° South 396 456 24,000 -3,120 Descending Miami Center
05:55PM 28.1022 -80.3239 156° South 396 456 20,300 -3,300 Descending Miami Center
05:56PM 28.0181 -80.2742 152° Southeast 391 450 17,400 -3,180 Descending Miami Center
05:57PM 27.9358 -80.2200 150° Southeast 369 425 14,000 -3,180 Descending Miami Center
05:58PM 27.8575 -80.1731 152° Southeast 343 395 11,100 -2,100 Descending Miami Center
05:59PM 27.7814 -80.1264 152° Southeast 317 365 9,900 -600 Descending Miami Center
06:00PM 27.6906 -80.0814 156° South 320 368 10,000  Climbing Miami Center
06:01PM 27.6011 -80.0603 168° South 326 375 10,000 -60 Level Miami Center
06:02PM 27.5108 -80.0833 193° South 323 372 9,900 -60 Descending Miami Center
06:03PM 27.4353 -80.1047 194° South 323 372 9,900  Level Miami Center
06:04PM 27.3575 -80.1283 195° South 306 352 10,000  Climbing Miami Center
06:05PM 27.2675 -80.1328 183° South 299 344 10,000 -300 Level Miami Center
06:06PM 27.1886 -80.1117 167° South 292 336 9,400 -1,140 Descending Miami Center
06:07PM 27.1111 -80.1214 186° South 292 336 7,800 -1,740 Descending Miami Center
06:08PM 27.0419 -80.1311 187° South 286 329 6,000 -2,100 Descending Miami Center
06:09PM 26.9647 -80.1381 185° South 268 308 3,700 -1,740 Descending Miami Center
06:10PM 26.8997 -80.1456 186° South 256 295 2,600 -1,140 Descending Miami Center
06:11PM 26.8411 -80.1533 187° South 233 268 1,500 -1,140 Descending Miami Center
06:13PM 26.6832 -80.0956 254° West  Level Estimated
06:20PM 26.6832 -80.0956 110° East  Level Estimated
06:21PM 26.6832 -80.0956 110° East  Level Estimated
06:22PM 26.6832 -80.0956 110° East  Level Estimated
06:23PM 26.6832 -80.0956 110° East  Level Estimated
06:24PM 26.6832 -80.0956 110° East  Level Estimated